createdAt,value
2023-09-06T00:00:29.243Z,13.07
2023-09-06T00:02:59.409Z,13.04
2023-09-06T00:05:28.295Z,13.01
2023-09-06T00:07:55.474Z,12.98
2023-09-06T00:10:22.876Z,12.94
2023-09-06T00:12:50.098Z,12.91
2023-09-06T00:15:17.333Z,12.89
2023-09-06T00:17:45.230Z,12.86
2023-09-06T00:20:21.217Z,12.84
2023-09-06T00:22:59.682Z,12.81
2023-09-06T00:25:28.590Z,12.78
2023-09-06T00:27:57.195Z,12.75
2023-09-06T00:30:24.487Z,12.73
2023-09-06T00:32:54.945Z,12.70
2023-09-06T00:35:26.991Z,12.67
2023-09-06T00:37:55.677Z,12.65
2023-09-06T00:40:24.253Z,12.63
2023-09-06T00:43:01.398Z,12.61
2023-09-06T00:45:52.534Z,12.58
2023-09-06T00:48:25.050Z,12.54
2023-09-06T00:50:55.344Z,12.50
2023-09-06T00:53:23.962Z,12.48
2023-09-06T00:55:51.456Z,12.46
2023-09-06T00:58:20.273Z,12.44
2023-09-06T01:04:56.534Z,12.37
2023-09-06T01:08:43.762Z,12.33
2023-09-06T01:11:56.785Z,12.30
2023-09-06T01:15:23.922Z,12.27
2023-09-06T01:18:40.747Z,12.25
2023-09-06T01:21:50.498Z,12.23
2023-09-06T01:24:57.952Z,12.21
2023-09-06T01:28:28.643Z,12.18
2023-09-06T01:31:57.587Z,12.16
2023-09-06T01:35:26.645Z,12.12
2023-09-06T01:38:43.629Z,12.09
2023-09-06T01:42:10.495Z,12.06
2023-09-06T01:45:37.646Z,12.04
2023-09-06T01:48:46.741Z,12.01
2023-09-06T01:52:14.316Z,11.99
2023-09-06T01:56:01.030Z,11.95
2023-09-06T01:59:48.089Z,11.91
2023-09-06T02:03:11.406Z,11.89
2023-09-06T02:06:16.670Z,11.86
2023-09-06T02:09:23.927Z,11.84
2023-09-06T02:12:31.253Z,11.82
2023-09-06T02:15:18.489Z,11.75
2023-09-06T02:18:16.447Z,11.69
2023-09-06T02:21:43.782Z,11.62
2023-09-06T02:24:54.035Z,11.60
2023-09-06T02:28:06.224Z,11.56
2023-09-06T02:31:33.167Z,11.52
2023-09-06T02:34:43.008Z,11.50
2023-09-06T02:37:39.043Z,11.49
2023-09-06T02:41:06.112Z,11.48
2023-09-06T02:44:15.176Z,11.45
2023-09-06T02:47:31.321Z,11.42
2023-09-06T02:50:41.212Z,11.38
2023-09-06T02:53:33.913Z,11.34
2023-09-06T02:56:52.430Z,11.33
2023-09-06T03:00:19.357Z,11.32
2023-09-06T03:03:32.249Z,11.31
2023-09-06T03:07:02.952Z,11.32
2023-09-06T03:10:12.892Z,11.31
2023-09-06T03:13:44.528Z,11.31
2023-09-06T03:17:12.626Z,11.29
2023-09-06T03:20:46.496Z,11.27
2023-09-06T03:24:14.009Z,11.26
2023-09-06T03:27:48.096Z,11.25
2023-09-06T03:30:57.212Z,11.23
2023-09-06T03:34:04.891Z,11.20
2023-09-06T03:37:14.604Z,11.17
2023-09-06T03:39:50.680Z,11.16
2023-09-06T03:42:43.410Z,11.15
2023-09-06T03:45:55.928Z,11.13
2023-09-06T03:49:23.024Z,11.11
2023-09-06T03:52:19.345Z,11.08
2023-09-06T03:55:11.955Z,11.07
2023-09-06T03:58:19.893Z,11.06
2023-09-06T04:01:26.961Z,11.05
2023-09-06T04:05:13.918Z,11.01
2023-09-06T04:08:21.426Z,11.01
2023-09-06T04:11:28.544Z,11.00
2023-09-06T04:15:15.863Z,10.98
2023-09-06T04:18:24.160Z,10.99
2023-09-06T04:21:33.124Z,10.99
2023-09-06T04:24:59.597Z,10.98
2023-09-06T04:28:26.989Z,10.98
2023-09-06T04:31:35.762Z,10.98
2023-09-06T04:35:29.403Z,10.97
2023-09-06T04:39:16.583Z,10.98
2023-09-06T04:43:00.428Z,10.98
2023-09-06T04:46:28.564Z,10.97
2023-09-06T04:50:00.014Z,10.95
2023-09-06T04:52:47.163Z,10.96
2023-09-06T04:56:16.224Z,10.97
2023-09-06T04:59:44.568Z,10.92
2023-09-06T05:03:16.177Z,10.88
2023-09-06T05:14:06.507Z,10.99
2023-09-06T05:17:55.755Z,11.03
2023-09-06T05:25:40.417Z,11.16
2023-09-06T05:33:29.148Z,11.31
2023-09-06T05:37:18.217Z,11.40
2023-09-06T05:44:38.484Z,11.59
2023-09-06T05:48:35.614Z,11.70
2023-09-06T05:52:47.549Z,11.81
2023-09-06T05:56:47.796Z,11.96
2023-09-06T06:12:29.409Z,12.66
2023-09-06T06:16:31.256Z,12.84
2023-09-06T06:20:30.810Z,13.03
2023-09-06T06:24:12.867Z,13.22
2023-09-06T06:27:27.096Z,13.41
2023-09-06T06:30:36.129Z,13.54
2023-09-06T06:33:50.179Z,13.69
2023-09-06T06:37:37.361Z,13.87
2023-09-06T06:41:24.578Z,14.07
2023-09-06T06:44:40.121Z,14.25
2023-09-06T06:48:07.809Z,14.41
2023-09-06T06:51:40.999Z,14.60
2023-09-06T06:55:29.200Z,14.81
2023-09-06T06:59:16.595Z,15.07
2023-09-06T07:03:03.781Z,15.31
2023-09-06T07:06:52.745Z,15.63
2023-09-06T07:10:14.301Z,15.96
2023-09-06T07:12:53.694Z,16.25
2023-09-06T07:16:22.031Z,16.49
2023-09-06T07:19:10.198Z,16.84
2023-09-06T07:21:38.733Z,17.07
2023-09-06T07:24:11.684Z,17.27
2023-09-06T07:26:44.593Z,17.48
2023-09-06T07:29:12.212Z,17.67
2023-09-06T07:31:40.768Z,17.85
2023-09-06T07:34:11.356Z,18.09
2023-09-06T07:36:39.075Z,18.32
2023-09-06T07:39:10.996Z,18.54
2023-09-06T07:42:01.757Z,18.78
2023-09-06T07:45:28.793Z,18.99
2023-09-06T07:48:56.550Z,19.26
2023-09-06T07:51:29.414Z,19.50
2023-09-06T07:54:08.925Z,19.68
2023-09-06T07:56:36.268Z,19.85
2023-09-06T07:59:27.594Z,20.06
2023-09-06T08:01:55.321Z,20.23
2023-09-06T08:04:23.407Z,20.39
2023-09-06T08:06:51.609Z,20.55
2023-09-06T08:09:19.232Z,20.74
2023-09-06T08:11:46.758Z,20.83
2023-09-06T08:14:15.105Z,20.97
2023-09-06T08:16:42.499Z,21.04
2023-09-06T08:19:09.913Z,20.91
2023-09-06T08:21:37.408Z,20.74
2023-09-06T08:24:05.449Z,20.61
2023-09-06T08:26:33.188Z,20.54
2023-09-06T08:29:00.536Z,20.51
2023-09-06T08:31:28.182Z,20.74
2023-09-06T08:33:55.654Z,21.07
2023-09-06T08:36:23.641Z,21.38
2023-09-06T08:38:51.016Z,21.65
2023-09-06T08:41:19.109Z,21.90
2023-09-06T08:43:47.646Z,21.96
2023-09-06T08:46:46.371Z,21.83
2023-09-06T08:49:15.827Z,21.75
2023-09-06T08:51:45.149Z,21.80
2023-09-06T08:54:14.236Z,21.93
2023-09-06T08:56:42.885Z,22.08
2023-09-06T08:59:10.832Z,22.27
2023-09-06T09:01:39.538Z,22.48
2023-09-06T09:04:07.403Z,22.66
2023-09-06T09:06:35.172Z,22.80
2023-09-06T09:09:19.432Z,22.95
2023-09-06T09:11:51.780Z,23.22
2023-09-06T09:14:27.631Z,23.50
2023-09-06T09:17:01.241Z,23.79
2023-09-06T09:19:29.162Z,23.99
2023-09-06T09:22:01.243Z,24.08
2023-09-06T09:24:32.261Z,24.26
2023-09-06T09:27:00.259Z,24.42
2023-09-06T09:29:30.094Z,24.48
2023-09-06T09:32:05.552Z,24.60
2023-09-06T09:34:34.437Z,24.79
2023-09-06T09:38:01.493Z,24.97
2023-09-06T09:43:27.304Z,25.32
2023-09-06T09:45:56.715Z,25.45
2023-09-06T09:49:24.361Z,25.56
2023-09-06T09:51:53.683Z,25.65
2023-09-06T09:54:25.320Z,25.68
2023-09-06T09:57:06.626Z,25.78
2023-09-06T09:59:37.936Z,25.91
2023-09-06T10:02:10.874Z,26.02
2023-09-06T10:04:44.391Z,26.12
2023-09-06T10:07:15.930Z,26.20
2023-09-06T10:10:08.792Z,26.28
2023-09-06T10:12:36.602Z,26.35
2023-09-06T10:15:45.448Z,26.44
2023-09-06T10:18:56.447Z,26.55
2023-09-06T10:21:47.405Z,26.61
2023-09-06T10:25:06.430Z,26.74
2023-09-06T10:27:35.570Z,26.81
2023-09-06T10:31:15.092Z,26.82
2023-09-06T10:35:03.328Z,26.94
2023-09-06T10:39:03.230Z,27.16
2023-09-06T10:42:52.509Z,27.23
2023-09-06T10:46:53.504Z,27.35
2023-09-06T10:51:01.065Z,27.55
2023-09-06T10:54:48.834Z,27.85
2023-09-06T10:58:40.255Z,28.16
2023-09-06T11:02:26.306Z,28.47
2023-09-06T11:06:23.007Z,28.76
2023-09-06T11:10:13.937Z,28.79
2023-09-06T11:14:13.712Z,28.59
2023-09-06T11:18:01.669Z,28.59
2023-09-06T11:21:49.388Z,28.73
2023-09-06T11:25:37.261Z,28.70
2023-09-06T11:29:27.396Z,28.83
2023-09-06T11:33:15.728Z,29.00
2023-09-06T11:37:06.573Z,28.95
2023-09-06T11:40:54.308Z,29.19
2023-09-06T11:44:42.713Z,29.53
2023-09-06T11:48:30.816Z,29.60
2023-09-06T11:52:21.632Z,29.67
2023-09-06T11:56:12.680Z,29.69
2023-09-06T12:00:05.901Z,29.41
2023-09-06T12:02:53.322Z,29.28
2023-09-06T12:05:34.939Z,29.34
2023-09-06T12:08:11.349Z,29.46
2023-09-06T12:10:41.760Z,29.58
2023-09-06T12:13:09.947Z,29.48
2023-09-06T12:15:37.261Z,29.46
2023-09-06T12:18:05.284Z,29.57
2023-09-06T12:20:34.754Z,29.66
2023-09-06T12:23:02.349Z,29.72
2023-09-06T12:25:29.908Z,29.62
2023-09-06T12:27:57.306Z,29.49
2023-09-06T12:30:25.511Z,29.33
2023-09-06T12:32:53.682Z,29.21
2023-09-06T12:35:21.689Z,29.23
2023-09-06T12:37:49.025Z,29.29
2023-09-06T12:40:17.007Z,29.23
2023-09-06T12:42:46.498Z,29.12
2023-09-06T12:45:28.304Z,28.95
2023-09-06T12:47:57.330Z,28.91
2023-09-06T12:50:25.648Z,28.80
2023-09-06T12:52:54.355Z,28.74
2023-09-06T12:55:22.216Z,28.81
2023-09-06T12:57:52.502Z,28.86
2023-09-06T13:00:20.691Z,28.88
2023-09-06T13:02:48.379Z,28.88
2023-09-06T13:05:21.811Z,28.70
2023-09-06T13:07:49.358Z,28.60
2023-09-06T13:10:17.449Z,28.60
2023-09-06T13:12:45.885Z,28.57
2023-09-06T13:15:13.287Z,28.62
2023-09-06T13:17:40.772Z,28.62
2023-09-06T13:20:12.222Z,28.56
2023-09-06T13:22:40.276Z,28.53
2023-09-06T13:25:08.442Z,28.49
2023-09-06T13:27:36.623Z,28.41
2023-09-06T13:30:06.062Z,28.43
2023-09-06T13:32:33.912Z,28.47
2023-09-06T13:35:01.701Z,28.46
2023-09-06T13:37:29.465Z,28.49
2023-09-06T13:39:56.748Z,28.46
2023-09-06T13:42:24.853Z,28.44
2023-09-06T13:44:52.403Z,28.39
2023-09-06T13:47:19.820Z,28.39
2023-09-06T13:49:47.178Z,28.42
2023-09-06T13:52:16.442Z,28.55
2023-09-06T13:54:45.102Z,28.59
2023-09-06T13:57:12.382Z,28.64
2023-09-06T13:59:40.823Z,28.67
2023-09-06T14:02:08.359Z,28.63
2023-09-06T14:04:36.848Z,28.49
2023-09-06T14:07:04.589Z,28.37
2023-09-06T14:09:32.349Z,28.32
2023-09-06T14:11:59.692Z,28.30
2023-09-06T14:14:27.136Z,28.25
2023-09-06T14:16:54.823Z,28.20
2023-09-06T14:19:22.031Z,28.21
2023-09-06T14:21:49.987Z,28.14
2023-09-06T14:24:17.711Z,28.14
2023-09-06T14:26:44.990Z,28.13
2023-09-06T14:29:16.555Z,28.14
2023-09-06T14:31:44.725Z,28.13
2023-09-06T14:34:12.216Z,28.12
2023-09-06T14:36:40.313Z,28.06
2023-09-06T14:39:09.623Z,28.06
2023-09-06T14:41:37.070Z,28.06
2023-09-06T14:44:05.102Z,27.98
2023-09-06T14:46:32.545Z,27.93
2023-09-06T14:48:59.918Z,27.94
2023-09-06T14:51:27.371Z,28.00
2023-09-06T14:53:56.126Z,27.98
2023-09-06T14:56:23.641Z,27.94
2023-09-06T14:58:51.375Z,27.89
2023-09-06T15:01:19.421Z,27.91
2023-09-06T15:03:47.410Z,27.91
2023-09-06T15:06:15.225Z,27.93
2023-09-06T15:08:43.754Z,27.95
2023-09-06T15:11:11.223Z,27.90
2023-09-06T15:13:39.469Z,27.87
2023-09-06T15:16:08.408Z,27.88
2023-09-06T15:18:36.279Z,27.88
2023-09-06T15:21:04.669Z,27.82
2023-09-06T15:23:32.914Z,27.78
2023-09-06T15:26:00.811Z,27.72
2023-09-06T15:28:28.894Z,27.59
2023-09-06T15:30:57.504Z,27.49
2023-09-06T15:33:28.133Z,27.35
2023-09-06T15:35:57.141Z,27.22
2023-09-06T15:38:24.971Z,27.04
2023-09-06T15:40:53.288Z,26.91
2023-09-06T15:43:21.048Z,26.82
2023-09-06T15:45:49.511Z,26.73
2023-09-06T15:48:17.026Z,26.63
2023-09-06T15:50:44.683Z,26.52
2023-09-06T15:53:12.922Z,26.44
2023-09-06T15:55:41.342Z,26.35
2023-09-06T15:58:10.974Z,26.25
2023-09-06T16:00:38.578Z,26.14
2023-09-06T16:03:06.322Z,26.01
2023-09-06T16:05:35.120Z,25.88
2023-09-06T16:08:02.571Z,25.76
2023-09-06T16:10:30.042Z,25.63
2023-09-06T16:12:57.739Z,25.48
2023-09-06T16:15:26.795Z,25.36
2023-09-06T16:17:55.616Z,25.23
2023-09-06T16:20:24.398Z,25.10
2023-09-06T16:22:52.826Z,25.01
2023-09-06T16:25:22.327Z,24.93
2023-09-06T16:27:50.483Z,24.85
2023-09-06T16:30:19.483Z,24.76
2023-09-06T16:32:53.195Z,24.64
2023-09-06T16:35:21.406Z,24.52
2023-09-06T16:37:53.797Z,24.40
2023-09-06T16:40:26.208Z,24.25
2023-09-06T16:42:53.875Z,24.11
2023-09-06T16:45:21.695Z,23.98
2023-09-06T16:47:51.513Z,23.84
2023-09-06T16:50:21.032Z,23.71
2023-09-06T16:52:49.493Z,23.58
2023-09-06T16:55:17.458Z,23.46
2023-09-06T16:57:45.263Z,23.32
2023-09-06T17:00:14.848Z,23.19
2023-09-06T17:02:42.376Z,23.06
2023-09-06T17:05:12.146Z,22.92
2023-09-06T17:07:39.668Z,22.80
2023-09-06T17:10:10.016Z,22.68
2023-09-06T17:12:38.769Z,22.56
2023-09-06T17:15:25.423Z,22.44
2023-09-06T17:17:52.834Z,22.31
2023-09-06T17:20:25.165Z,22.18
2023-09-06T17:22:52.865Z,22.06
2023-09-06T17:25:23.315Z,21.94
2023-09-06T17:27:50.800Z,21.81
2023-09-06T17:30:22.287Z,21.69
2023-09-06T17:33:04.816Z,21.57
2023-09-06T17:35:32.654Z,21.44
2023-09-06T17:38:01.569Z,21.32
2023-09-06T17:40:30.121Z,21.20
2023-09-06T17:42:57.962Z,21.07
2023-09-06T17:45:25.772Z,20.95
2023-09-06T17:47:54.730Z,20.83
2023-09-06T17:50:23.422Z,20.71
2023-09-06T17:52:52.688Z,20.60
2023-09-06T17:55:21.277Z,20.49
2023-09-06T17:57:49.445Z,20.39
2023-09-06T18:00:24.657Z,20.28
2023-09-06T18:02:52.433Z,20.16
2023-09-06T18:05:21.612Z,20.05
2023-09-06T18:07:50.062Z,19.95
2023-09-06T18:10:17.971Z,19.83
2023-09-06T18:12:46.492Z,19.72
2023-09-06T18:15:14.563Z,19.60
2023-09-06T18:17:52.726Z,19.49
2023-09-06T18:20:20.782Z,19.37
2023-09-06T18:22:49.103Z,19.26
2023-09-06T18:25:16.432Z,19.14
2023-09-06T18:27:48.754Z,19.02
2023-09-06T18:30:25.855Z,18.93
2023-09-06T18:32:58.216Z,18.82
2023-09-06T18:35:28.815Z,18.72
2023-09-06T18:37:56.130Z,18.62
2023-09-06T18:40:24.032Z,18.52
2023-09-06T18:42:51.698Z,18.42
2023-09-06T18:45:22.120Z,18.32
2023-09-06T18:47:52.198Z,18.21
2023-09-06T18:50:20.867Z,18.12
2023-09-06T18:52:50.028Z,18.03
2023-09-06T18:55:21.785Z,17.92
2023-09-06T18:58:04.763Z,17.82
2023-09-06T19:00:34.425Z,17.70
2023-09-06T19:03:07.330Z,17.60
2023-09-06T19:05:36.760Z,17.49
2023-09-06T19:08:05.366Z,17.41
2023-09-06T19:10:34.452Z,17.32
2023-09-06T19:13:06.246Z,17.24
2023-09-06T19:15:34.995Z,17.15
2023-09-06T19:18:03.135Z,17.07
2023-09-06T19:20:31.376Z,16.98
2023-09-06T19:22:59.079Z,16.90
2023-09-06T19:25:29.572Z,16.79
2023-09-06T19:27:58.332Z,16.70
2023-09-06T19:30:30.181Z,16.65
2023-09-06T19:32:58.195Z,16.89
2023-09-06T19:35:26.634Z,17.14
2023-09-06T19:37:54.554Z,17.30
2023-09-06T19:40:23.354Z,17.42
2023-09-06T19:42:54.942Z,17.50
2023-09-06T19:45:23.013Z,17.56
2023-09-06T19:47:51.112Z,17.61
2023-09-06T19:50:22.535Z,17.66
2023-09-06T19:52:54.244Z,17.69
2023-09-06T19:55:23.822Z,17.72
2023-09-06T19:57:51.797Z,17.74
2023-09-06T20:00:19.508Z,17.68
2023-09-06T20:02:48.073Z,17.35
2023-09-06T20:05:16.034Z,17.02
2023-09-06T20:07:44.818Z,16.76
2023-09-06T20:10:13.510Z,16.54
2023-09-06T20:12:43.014Z,16.36
2023-09-06T20:15:12.369Z,16.19
2023-09-06T20:17:43.553Z,16.03
2023-09-06T20:20:11.795Z,15.96
2023-09-06T20:22:39.263Z,16.17
2023-09-06T20:25:07.387Z,16.39
2023-09-06T20:27:35.317Z,16.55
2023-09-06T20:30:03.209Z,16.66
2023-09-06T20:32:31.692Z,16.72
2023-09-06T20:34:59.444Z,16.77
2023-09-06T20:37:27.081Z,16.81
2023-09-06T20:39:55.067Z,16.85
2023-09-06T20:42:23.129Z,16.86
2023-09-06T20:44:52.720Z,16.87
2023-09-06T20:47:20.729Z,16.87
2023-09-06T20:49:49.408Z,16.88
2023-09-06T20:52:17.247Z,16.87
2023-09-06T20:54:44.935Z,16.87
2023-09-06T20:57:12.600Z,16.87
2023-09-06T20:59:40.347Z,16.87
2023-09-06T21:02:08.178Z,16.86
2023-09-06T21:04:35.709Z,16.85
2023-09-06T21:07:03.178Z,16.83
2023-09-06T21:09:30.592Z,16.81
2023-09-06T21:11:58.089Z,16.78
2023-09-06T21:14:25.354Z,16.75
2023-09-06T21:16:52.652Z,16.72
2023-09-06T21:19:19.825Z,16.70
2023-09-06T21:21:46.962Z,16.66
2023-09-06T21:24:14.301Z,16.64
2023-09-06T21:26:41.676Z,16.61
2023-09-06T21:29:18.096Z,16.58
2023-09-06T21:31:53.525Z,16.54
2023-09-06T21:34:25.760Z,16.51
2023-09-06T21:36:53.327Z,16.47
2023-09-06T21:39:20.584Z,16.44
2023-09-06T21:41:48.954Z,16.41
2023-09-06T21:44:17.831Z,16.38
2023-09-06T21:46:45.245Z,16.35
2023-09-06T21:49:12.469Z,16.32
2023-09-06T21:51:39.706Z,16.29
2023-09-06T21:54:06.954Z,16.26
2023-09-06T21:56:34.225Z,16.23
2023-09-06T21:59:02.684Z,16.21
2023-09-06T22:01:30.006Z,16.18
2023-09-06T22:03:57.348Z,16.15
2023-09-06T22:06:24.554Z,16.11
2023-09-06T22:08:51.981Z,16.08
2023-09-06T22:11:19.149Z,16.05
2023-09-06T22:13:46.297Z,16.01
2023-09-06T22:16:13.750Z,15.97
2023-09-06T22:18:41.073Z,15.92
2023-09-06T22:21:08.424Z,15.88
2023-09-06T22:23:35.992Z,15.86
2023-09-06T22:26:03.428Z,15.82
2023-09-06T22:28:33.695Z,15.77
2023-09-06T22:31:01.413Z,15.74
2023-09-06T22:33:31.865Z,15.72
2023-09-06T22:35:59.352Z,15.69
2023-09-06T22:38:26.578Z,15.65
2023-09-06T22:40:53.910Z,15.62
2023-09-06T22:43:21.178Z,15.58
2023-09-06T22:45:51.298Z,15.54
2023-09-06T22:48:18.794Z,15.50
2023-09-06T22:50:46.751Z,15.46
2023-09-06T22:53:13.929Z,15.42
2023-09-06T22:55:41.340Z,15.38
2023-09-06T22:58:08.941Z,15.33
2023-09-06T23:00:39.711Z,15.30
2023-09-06T23:03:10.187Z,15.26
2023-09-06T23:05:37.945Z,15.22
2023-09-06T23:08:06.243Z,15.19
2023-09-06T23:10:34.768Z,15.16
2023-09-06T23:13:02.513Z,15.12
2023-09-06T23:15:30.613Z,15.08
2023-09-06T23:17:58.150Z,15.04
2023-09-06T23:20:30.399Z,15.00
2023-09-06T23:23:00.080Z,14.96
2023-09-06T23:25:37.266Z,14.93
2023-09-06T23:28:16.863Z,14.88
2023-09-06T23:30:50.829Z,14.84
2023-09-06T23:33:28.678Z,14.81
2023-09-06T23:35:56.112Z,14.78
2023-09-06T23:38:23.628Z,14.75
2023-09-06T23:40:50.885Z,14.71
2023-09-06T23:43:18.182Z,14.68
2023-09-06T23:45:46.571Z,14.65
2023-09-06T23:48:13.972Z,14.62
2023-09-06T23:50:41.412Z,14.59
2023-09-06T23:53:08.535Z,14.57
2023-09-06T23:55:36.885Z,14.55
2023-09-06T23:58:05.818Z,14.51
